sensor_id;sensor_type;location;lat;lon;timestamp;temperature;humidity
16513;DHT22;8369;48.030;11.598;2024-02-26T00:01:41;2.00;99.90
16513;DHT22;8369;48.030;11.598;2024-02-26T00:04:09;2.00;99.90
16513;DHT22;8369;48.030;11.598;2024-02-26T00:06:35;2.00;99.90
16513;DHT22;8369;48.030;11.598;2024-02-26T00:09:01;1.90;99.90
16513;DHT22;8369;48.030;11.598;2024-02-26T00:11:28;1.90;99.90
16513;DHT22;8369;48.030;11.598;2024-02-26T00:13:54;1.90;99.90
16513;DHT22;8369;48.030;11.598;2024-02-26T00:16:19;1.90;99.90
16513;DHT22;8369;48.030;11.598;2024-02-26T00:18:45;1.90;99.90
16513;DHT22;8369;48.030;11.598;2024-02-26T00:21:11;1.90;99.90
16513;DHT22;8369;48.030;11.598;2024-02-26T00:23:37;1.80;99.90
16513;DHT22;8369;48.030;11.598;2024-02-26T00:26:05;1.80;99.90
16513;DHT22;8369;48.030;11.598;2024-02-26T00:28:31;1.80;99.90
16513;DHT22;8369;48.030;11.598;2024-02-26T00:30:57;1.80;99.90
16513;DHT22;8369;48.030;11.598;2024-02-26T00:33:22;1.80;99.90
16513;DHT22;8369;48.030;11.598;2024-02-26T00:35:49;1.80;99.90
16513;DHT22;8369;48.030;11.598;2024-02-26T00:38:17;1.80;99.90
16513;DHT22;8369;48.030;11.598;2024-02-26T00:40:43;1.80;99.90
16513;DHT22;8369;48.030;11.598;2024-02-26T00:43:09;1.80;99.90
16513;DHT22;8369;48.030;11.598;2024-02-26T00:45:35;1.70;99.90
16513;DHT22;8369;48.030;11.598;2024-02-26T00:48:01;1.70;99.90
16513;DHT22;8369;48.030;11.598;2024-02-26T00:50:33;1.70;99.90
16513;DHT22;8369;48.030;11.598;2024-02-26T00:52:59;1.70;99.90
16513;DHT22;8369;48.030;11.598;2024-02-26T00:55:25;1.70;99.90
16513;DHT22;8369;48.030;11.598;2024-02-26T00:57:51;1.70;99.90
16513;DHT22;8369;48.030;11.598;2024-02-26T01:00:17;1.70;99.90
16513;DHT22;8369;48.030;11.598;2024-02-26T01:02:43;1.70;99.90
16513;DHT22;8369;48.030;11.598;2024-02-26T01:05:12;1.70;99.90
16513;DHT22;8369;48.030;11.598;2024-02-26T01:07:38;1.70;99.90
16513;DHT22;8369;48.030;11.598;2024-02-26T01:10:08;1.60;99.90
16513;DHT22;8369;48.030;11.598;2024-02-26T01:12:34;1.60;99.90
16513;DHT22;8369;48.030;11.598;2024-02-26T01:15:01;1.60;99.90
16513;DHT22;8369;48.030;11.598;2024-02-26T01:17:28;1.60;99.90
16513;DHT22;8369;48.030;11.598;2024-02-26T01:19:54;1.50;99.90
16513;DHT22;8369;48.030;11.598;2024-02-26T01:22:19;1.50;99.90
16513;DHT22;8369;48.030;11.598;2024-02-26T01:24:45;1.50;99.90
16513;DHT22;8369;48.030;11.598;2024-02-26T01:27:11;1.50;99.90
16513;DHT22;8369;48.030;11.598;2024-02-26T01:29:38;1.50;99.90
16513;DHT22;8369;48.030;11.598;2024-02-26T01:32:03;1.50;99.90
16513;DHT22;8369;48.030;11.598;2024-02-26T01:34:31;1.50;99.90
16513;DHT22;8369;48.030;11.598;2024-02-26T01:36:57;1.50;99.90
16513;DHT22;8369;48.030;11.598;2024-02-26T01:39:22;1.40;99.90
16513;DHT22;8369;48.030;11.598;2024-02-26T01:41:48;1.40;99.90
16513;DHT22;8369;48.030;11.598;2024-02-26T01:44:14;1.40;99.90
16513;DHT22;8369;48.030;11.598;2024-02-26T01:46:40;1.40;99.90
16513;DHT22;8369;48.030;11.598;2024-02-26T01:49:06;1.40;99.90
16513;DHT22;8369;48.030;11.598;2024-02-26T01:51:33;1.40;99.90
16513;DHT22;8369;48.030;11.598;2024-02-26T01:54:02;1.40;99.90
16513;DHT22;8369;48.030;11.598;2024-02-26T01:56:29;1.40;99.90
16513;DHT22;8369;48.030;11.598;2024-02-26T01:59:00;1.40;99.90
16513;DHT22;8369;48.030;11.598;2024-02-26T02:01:29;1.40;99.90
16513;DHT22;8369;48.030;11.598;2024-02-26T02:03:57;1.40;99.90
16513;DHT22;8369;48.030;11.598;2024-02-26T02:06:23;1.40;99.90
16513;DHT22;8369;48.030;11.598;2024-02-26T02:08:49;1.40;99.90
16513;DHT22;8369;48.030;11.598;2024-02-26T02:11:16;1.40;99.90
16513;DHT22;8369;48.030;11.598;2024-02-26T02:13:42;1.40;99.90
16513;DHT22;8369;48.030;11.598;2024-02-26T02:16:07;1.40;99.90
16513;DHT22;8369;48.030;11.598;2024-02-26T02:18:33;1.30;99.90
16513;DHT22;8369;48.030;11.598;2024-02-26T02:21:02;1.30;99.90
16513;DHT22;8369;48.030;11.598;2024-02-26T02:23:28;1.30;99.90
16513;DHT22;8369;48.030;11.598;2024-02-26T02:25:54;1.30;99.90
16513;DHT22;8369;48.030;11.598;2024-02-26T02:28:25;1.30;99.90
16513;DHT22;8369;48.030;11.598;2024-02-26T02:30:52;1.30;99.90
16513;DHT22;8369;48.030;11.598;2024-02-26T02:33:18;1.30;99.90
16513;DHT22;8369;48.030;11.598;2024-02-26T02:35:52;1.30;99.90
16513;DHT22;8369;48.030;11.598;2024-02-26T02:38:20;1.20;99.90
16513;DHT22;8369;48.030;11.598;2024-02-26T02:44:28;1.20;99.90
16513;DHT22;8369;48.030;11.598;2024-02-26T02:46:53;1.20;99.90
16513;DHT22;8369;48.030;11.598;2024-02-26T02:49:19;1.10;99.90
16513;DHT22;8369;48.030;11.598;2024-02-26T02:51:45;1.10;99.90
16513;DHT22;8369;48.030;11.598;2024-02-26T02:54:10;1.10;99.90
16513;DHT22;8369;48.030;11.598;2024-02-26T02:56:36;1.10;99.90
16513;DHT22;8369;48.030;11.598;2024-02-26T02:59:02;1.10;99.90
16513;DHT22;8369;48.030;11.598;2024-02-26T03:01:28;1.10;99.90
16513;DHT22;8369;48.030;11.598;2024-02-26T03:03:53;1.10;99.90
16513;DHT22;8369;48.030;11.598;2024-02-26T03:06:22;1.10;99.90
16513;DHT22;8369;48.030;11.598;2024-02-26T03:08:48;1.10;99.90
16513;DHT22;8369;48.030;11.598;2024-02-26T03:11:14;1.10;99.90
16513;DHT22;8369;48.030;11.598;2024-02-26T03:13:42;1.10;99.90
16513;DHT22;8369;48.030;11.598;2024-02-26T03:16:08;1.10;99.90
16513;DHT22;8369;48.030;11.598;2024-02-26T03:18:34;1.10;99.90
16513;DHT22;8369;48.030;11.598;2024-02-26T03:21:03;1.00;99.90
16513;DHT22;8369;48.030;11.598;2024-02-26T03:23:29;1.00;99.90
16513;DHT22;8369;48.030;11.598;2024-02-26T03:25:56;1.00;99.90
16513;DHT22;8369;48.030;11.598;2024-02-26T03:28:21;1.00;99.90
16513;DHT22;8369;48.030;11.598;2024-02-26T03:30:47;1.10;99.90
16513;DHT22;8369;48.030;11.598;2024-02-26T03:33:14;1.10;99.90
16513;DHT22;8369;48.030;11.598;2024-02-26T03:35:40;1.10;99.90
16513;DHT22;8369;48.030;11.598;2024-02-26T03:38:05;1.10;99.90
16513;DHT22;8369;48.030;11.598;2024-02-26T03:40:31;1.10;99.90
16513;DHT22;8369;48.030;11.598;2024-02-26T03:42:58;1.10;99.90
16513;DHT22;8369;48.030;11.598;2024-02-26T03:45:23;1.10;99.90
16513;DHT22;8369;48.030;11.598;2024-02-26T03:47:51;1.10;99.90
16513;DHT22;8369;48.030;11.598;2024-02-26T03:50:16;1.10;99.90
16513;DHT22;8369;48.030;11.598;2024-02-26T03:52:42;1.10;99.90
16513;DHT22;8369;48.030;11.598;2024-02-26T03:55:08;1.10;99.90
16513;DHT22;8369;48.030;11.598;2024-02-26T03:57:35;1.10;99.90
16513;DHT22;8369;48.030;11.598;2024-02-26T04:00:01;1.10;99.90
16513;DHT22;8369;48.030;11.598;2024-02-26T04:02:27;1.10;99.90
16513;DHT22;8369;48.030;11.598;2024-02-26T04:04:52;1.00;99.90
16513;DHT22;8369;48.030;11.598;2024-02-26T04:07:18;1.00;99.90
16513;DHT22;8369;48.030;11.598;2024-02-26T04:09:44;1.00;99.90
16513;DHT22;8369;48.030;11.598;2024-02-26T04:12:09;1.00;99.90
16513;DHT22;8369;48.030;11.598;2024-02-26T04:14:38;1.00;99.90
16513;DHT22;8369;48.030;11.598;2024-02-26T04:17:06;1.00;99.90
16513;DHT22;8369;48.030;11.598;2024-02-26T04:19:32;1.00;99.90
16513;DHT22;8369;48.030;11.598;2024-02-26T04:22:01;1.00;99.90
16513;DHT22;8369;48.030;11.598;2024-02-26T04:24:28;1.00;99.90
16513;DHT22;8369;48.030;11.598;2024-02-26T04:26:54;1.00;99.90
16513;DHT22;8369;48.030;11.598;2024-02-26T04:29:19;1.00;99.90
16513;DHT22;8369;48.030;11.598;2024-02-26T04:31:45;1.00;99.90
16513;DHT22;8369;48.030;11.598;2024-02-26T04:34:12;1.00;99.90
16513;DHT22;8369;48.030;11.598;2024-02-26T04:36:38;1.00;99.90
16513;DHT22;8369;48.030;11.598;2024-02-26T04:39:03;1.00;99.90
16513;DHT22;8369;48.030;11.598;2024-02-26T04:41:29;1.00;99.90
16513;DHT22;8369;48.030;11.598;2024-02-26T04:43:55;0.90;99.90
16513;DHT22;8369;48.030;11.598;2024-02-26T04:46:21;0.90;99.90
16513;DHT22;8369;48.030;11.598;2024-02-26T04:48:49;0.90;99.90
16513;DHT22;8369;48.030;11.598;2024-02-26T04:51:15;0.90;99.90
16513;DHT22;8369;48.030;11.598;2024-02-26T04:53:41;0.90;99.90
16513;DHT22;8369;48.030;11.598;2024-02-26T04:56:06;0.90;99.90
16513;DHT22;8369;48.030;11.598;2024-02-26T04:58:32;0.90;99.90
16513;DHT22;8369;48.030;11.598;2024-02-26T05:00:58;0.90;99.90
16513;DHT22;8369;48.030;11.598;2024-02-26T05:03:24;0.80;99.90
16513;DHT22;8369;48.030;11.598;2024-02-26T05:05:49;0.80;99.90
16513;DHT22;8369;48.030;11.598;2024-02-26T05:08:18;0.80;99.90
16513;DHT22;8369;48.030;11.598;2024-02-26T05:10:45;0.80;99.90
16513;DHT22;8369;48.030;11.598;2024-02-26T05:13:11;0.80;99.90
16513;DHT22;8369;48.030;11.598;2024-02-26T05:15:36;0.80;99.90
16513;DHT22;8369;48.030;11.598;2024-02-26T05:18:03;0.80;99.90
16513;DHT22;8369;48.030;11.598;2024-02-26T05:20:28;0.80;99.90
16513;DHT22;8369;48.030;11.598;2024-02-26T05:22:54;0.80;99.90
16513;DHT22;8369;48.030;11.598;2024-02-26T05:25:20;0.80;99.90
16513;DHT22;8369;48.030;11.598;2024-02-26T05:27:46;0.80;99.90
16513;DHT22;8369;48.030;11.598;2024-02-26T05:30:12;0.80;99.90
16513;DHT22;8369;48.030;11.598;2024-02-26T05:32:40;0.80;99.90
16513;DHT22;8369;48.030;11.598;2024-02-26T05:35:06;0.80;99.90
16513;DHT22;8369;48.030;11.598;2024-02-26T05:37:32;0.80;99.90
16513;DHT22;8369;48.030;11.598;2024-02-26T05:39:58;0.80;99.90
16513;DHT22;8369;48.030;11.598;2024-02-26T05:42:24;0.80;99.90
16513;DHT22;8369;48.030;11.598;2024-02-26T05:44:51;0.90;99.90
16513;DHT22;8369;48.030;11.598;2024-02-26T05:47:17;0.80;99.90
16513;DHT22;8369;48.030;11.598;2024-02-26T05:49:45;0.90;99.90
16513;DHT22;8369;48.030;11.598;2024-02-26T05:52:12;0.90;99.90
16513;DHT22;8369;48.030;11.598;2024-02-26T05:54:38;0.90;99.90
16513;DHT22;8369;48.030;11.598;2024-02-26T05:57:04;0.90;99.90
16513;DHT22;8369;48.030;11.598;2024-02-26T05:59:29;0.90;99.90
16513;DHT22;8369;48.030;11.598;2024-02-26T06:01:55;0.90;99.90
16513;DHT22;8369;48.030;11.598;2024-02-26T06:04:21;0.90;99.90
16513;DHT22;8369;48.030;11.598;2024-02-26T06:06:46;1.00;99.90
16513;DHT22;8369;48.030;11.598;2024-02-26T06:09:12;1.00;99.90
16513;DHT22;8369;48.030;11.598;2024-02-26T06:11:38;1.00;99.90
16513;DHT22;8369;48.030;11.598;2024-02-26T06:14:04;1.00;99.90
16513;DHT22;8369;48.030;11.598;2024-02-26T06:16:30;1.10;99.90
16513;DHT22;8369;48.030;11.598;2024-02-26T06:18:56;1.10;99.90
16513;DHT22;8369;48.030;11.598;2024-02-26T06:21:22;1.20;99.90
16513;DHT22;8369;48.030;11.598;2024-02-26T06:23:48;1.20;99.90
16513;DHT22;8369;48.030;11.598;2024-02-26T06:26:15;1.30;99.90
16513;DHT22;8369;48.030;11.598;2024-02-26T06:28:40;1.30;99.90
16513;DHT22;8369;48.030;11.598;2024-02-26T06:31:06;1.30;99.90
16513;DHT22;8369;48.030;11.598;2024-02-26T06:33:32;1.40;99.90
16513;DHT22;8369;48.030;11.598;2024-02-26T06:35:58;1.40;99.90
16513;DHT22;8369;48.030;11.598;2024-02-26T06:38:24;1.50;99.90
16513;DHT22;8369;48.030;11.598;2024-02-26T06:40:49;1.50;99.90
16513;DHT22;8369;48.030;11.598;2024-02-26T06:43:15;1.60;99.90
16513;DHT22;8369;48.030;11.598;2024-02-26T06:45:41;1.60;99.90
16513;DHT22;8369;48.030;11.598;2024-02-26T06:48:07;1.70;99.90
16513;DHT22;8369;48.030;11.598;2024-02-26T06:50:32;1.80;99.90
16513;DHT22;8369;48.030;11.598;2024-02-26T06:52:58;1.80;99.90
16513;DHT22;8369;48.030;11.598;2024-02-26T06:55:24;1.90;99.90
16513;DHT22;8369;48.030;11.598;2024-02-26T06:57:50;1.90;99.90
16513;DHT22;8369;48.030;11.598;2024-02-26T07:00:16;2.00;99.90
16513;DHT22;8369;48.030;11.598;2024-02-26T07:02:42;2.10;99.90
16513;DHT22;8369;48.030;11.598;2024-02-26T07:05:08;2.10;99.90
16513;DHT22;8369;48.030;11.598;2024-02-26T07:07:34;2.20;99.90
16513;DHT22;8369;48.030;11.598;2024-02-26T07:10:00;2.20;99.90
16513;DHT22;8369;48.030;11.598;2024-02-26T07:12:29;2.30;99.90
16513;DHT22;8369;48.030;11.598;2024-02-26T07:14:55;2.30;99.90
16513;DHT22;8369;48.030;11.598;2024-02-26T07:17:21;2.40;99.90
16513;DHT22;8369;48.030;11.598;2024-02-26T07:19:46;2.40;99.90
16513;DHT22;8369;48.030;11.598;2024-02-26T07:22:12;2.50;99.90
16513;DHT22;8369;48.030;11.598;2024-02-26T07:24:39;2.60;99.90
16513;DHT22;8369;48.030;11.598;2024-02-26T07:27:05;2.60;99.90
16513;DHT22;8369;48.030;11.598;2024-02-26T07:29:31;2.70;99.90
16513;DHT22;8369;48.030;11.598;2024-02-26T07:31:57;2.70;99.90
16513;DHT22;8369;48.030;11.598;2024-02-26T07:34:23;2.80;99.90
16513;DHT22;8369;48.030;11.598;2024-02-26T07:36:53;2.80;99.90
16513;DHT22;8369;48.030;11.598;2024-02-26T07:39:19;2.90;99.90
16513;DHT22;8369;48.030;11.598;2024-02-26T07:41:45;2.90;99.90
16513;DHT22;8369;48.030;11.598;2024-02-26T07:44:13;3.00;99.90
16513;DHT22;8369;48.030;11.598;2024-02-26T07:46:39;3.10;99.90
16513;DHT22;8369;48.030;11.598;2024-02-26T07:49:08;3.20;99.90
16513;DHT22;8369;48.030;11.598;2024-02-26T07:51:34;3.20;99.90
16513;DHT22;8369;48.030;11.598;2024-02-26T07:54:00;3.30;99.90
16513;DHT22;8369;48.030;11.598;2024-02-26T07:56:26;3.40;99.90
16513;DHT22;8369;48.030;11.598;2024-02-26T07:58:52;3.50;99.90
16513;DHT22;8369;48.030;11.598;2024-02-26T08:01:20;3.60;99.90
16513;DHT22;8369;48.030;11.598;2024-02-26T08:03:46;3.70;99.90
16513;DHT22;8369;48.030;11.598;2024-02-26T08:06:12;3.70;99.90
16513;DHT22;8369;48.030;11.598;2024-02-26T08:08:38;3.80;99.90
16513;DHT22;8369;48.030;11.598;2024-02-26T08:11:04;3.80;99.90
16513;DHT22;8369;48.030;11.598;2024-02-26T08:13:29;3.90;99.90
16513;DHT22;8369;48.030;11.598;2024-02-26T08:15:55;3.90;99.90
16513;DHT22;8369;48.030;11.598;2024-02-26T08:18:21;4.00;99.90
16513;DHT22;8369;48.030;11.598;2024-02-26T08:20:46;4.00;99.90
16513;DHT22;8369;48.030;11.598;2024-02-26T08:23:14;4.00;99.90
16513;DHT22;8369;48.030;11.598;2024-02-26T08:25:40;4.10;99.90
16513;DHT22;8369;48.030;11.598;2024-02-26T08:28:06;4.10;99.90
16513;DHT22;8369;48.030;11.598;2024-02-26T08:30:32;4.20;99.90
16513;DHT22;8369;48.030;11.598;2024-02-26T08:32:58;4.20;99.90
16513;DHT22;8369;48.030;11.598;2024-02-26T08:35:23;4.30;99.90
16513;DHT22;8369;48.030;11.598;2024-02-26T08:37:49;4.40;99.90
16513;DHT22;8369;48.030;11.598;2024-02-26T08:40:15;4.50;99.90
16513;DHT22;8369;48.030;11.598;2024-02-26T08:42:41;4.50;99.90
16513;DHT22;8369;48.030;11.598;2024-02-26T08:45:08;4.60;99.90
16513;DHT22;8369;48.030;11.598;2024-02-26T08:47:35;4.70;99.90
16513;DHT22;8369;48.030;11.598;2024-02-26T08:50:00;4.80;99.90
16513;DHT22;8369;48.030;11.598;2024-02-26T08:52:26;4.80;99.90
16513;DHT22;8369;48.030;11.598;2024-02-26T08:54:52;4.90;99.90
16513;DHT22;8369;48.030;11.598;2024-02-26T08:57:18;5.00;99.90
16513;DHT22;8369;48.030;11.598;2024-02-26T08:59:43;5.10;99.90
16513;DHT22;8369;48.030;11.598;2024-02-26T09:02:09;5.10;99.90
16513;DHT22;8369;48.030;11.598;2024-02-26T09:04:35;5.20;99.90
16513;DHT22;8369;48.030;11.598;2024-02-26T09:07:01;5.20;99.90
16513;DHT22;8369;48.030;11.598;2024-02-26T09:09:28;5.30;99.90
16513;DHT22;8369;48.030;11.598;2024-02-26T09:11:54;5.40;99.90
16513;DHT22;8369;48.030;11.598;2024-02-26T09:14:21;5.40;99.90
16513;DHT22;8369;48.030;11.598;2024-02-26T09:16:47;5.50;99.90
16513;DHT22;8369;48.030;11.598;2024-02-26T09:19:15;5.50;99.90
16513;DHT22;8369;48.030;11.598;2024-02-26T09:21:44;5.60;99.90
16513;DHT22;8369;48.030;11.598;2024-02-26T09:24:11;5.60;99.90
16513;DHT22;8369;48.030;11.598;2024-02-26T09:26:37;5.70;99.90
16513;DHT22;8369;48.030;11.598;2024-02-26T09:29:03;5.70;99.90
16513;DHT22;8369;48.030;11.598;2024-02-26T09:31:30;5.80;99.90
16513;DHT22;8369;48.030;11.598;2024-02-26T09:33:55;5.90;99.90
16513;DHT22;8369;48.030;11.598;2024-02-26T09:36:24;6.00;99.90
16513;DHT22;8369;48.030;11.598;2024-02-26T09:38:50;6.00;99.90
16513;DHT22;8369;48.030;11.598;2024-02-26T09:41:15;6.10;99.90
16513;DHT22;8369;48.030;11.598;2024-02-26T09:43:45;6.20;99.90
16513;DHT22;8369;48.030;11.598;2024-02-26T09:46:14;6.30;99.90
16513;DHT22;8369;48.030;11.598;2024-02-26T09:48:42;6.40;99.90
16513;DHT22;8369;48.030;11.598;2024-02-26T09:51:11;6.50;99.90
16513;DHT22;8369;48.030;11.598;2024-02-26T09:53:38;6.60;99.90
16513;DHT22;8369;48.030;11.598;2024-02-26T09:56:08;6.70;99.90
16513;DHT22;8369;48.030;11.598;2024-02-26T09:58:34;6.80;99.90
16513;DHT22;8369;48.030;11.598;2024-02-26T10:01:02;6.80;99.90
16513;DHT22;8369;48.030;11.598;2024-02-26T10:03:34;6.90;99.90
16513;DHT22;8369;48.030;11.598;2024-02-26T10:06:01;6.90;99.90
16513;DHT22;8369;48.030;11.598;2024-02-26T10:08:29;7.00;99.90
16513;DHT22;8369;48.030;11.598;2024-02-26T10:10:56;7.10;99.90
16513;DHT22;8369;48.030;11.598;2024-02-26T10:13:22;7.10;99.90
16513;DHT22;8369;48.030;11.598;2024-02-26T10:15:48;7.10;99.90
16513;DHT22;8369;48.030;11.598;2024-02-26T10:18:15;7.20;99.90
16513;DHT22;8369;48.030;11.598;2024-02-26T10:20:40;7.20;99.90
16513;DHT22;8369;48.030;11.598;2024-02-26T10:23:06;7.30;99.90
16513;DHT22;8369;48.030;11.598;2024-02-26T10:25:32;7.30;99.90
16513;DHT22;8369;48.030;11.598;2024-02-26T10:28:01;7.40;99.90
16513;DHT22;8369;48.030;11.598;2024-02-26T10:30:30;7.50;99.90
16513;DHT22;8369;48.030;11.598;2024-02-26T10:32:56;7.50;99.90
16513;DHT22;8369;48.030;11.598;2024-02-26T10:35:23;7.50;99.90
16513;DHT22;8369;48.030;11.598;2024-02-26T10:37:49;7.60;99.90
16513;DHT22;8369;48.030;11.598;2024-02-26T10:40:15;7.60;99.90
16513;DHT22;8369;48.030;11.598;2024-02-26T10:42:42;7.70;99.90
16513;DHT22;8369;48.030;11.598;2024-02-26T10:45:09;7.70;99.90
16513;DHT22;8369;48.030;11.598;2024-02-26T10:47:36;7.80;99.90
16513;DHT22;8369;48.030;11.598;2024-02-26T10:50:03;7.90;99.90
16513;DHT22;8369;48.030;11.598;2024-02-26T10:52:34;8.00;99.90
16513;DHT22;8369;48.030;11.598;2024-02-26T10:55:02;8.00;99.90
16513;DHT22;8369;48.030;11.598;2024-02-26T10:57:35;8.20;99.90
16513;DHT22;8369;48.030;11.598;2024-02-26T11:00:03;8.30;99.90
16513;DHT22;8369;48.030;11.598;2024-02-26T11:02:33;8.30;99.90
16513;DHT22;8369;48.030;11.598;2024-02-26T11:05:03;8.50;99.90
16513;DHT22;8369;48.030;11.598;2024-02-26T11:07:31;8.60;99.90
16513;DHT22;8369;48.030;11.598;2024-02-26T11:10:00;8.70;99.90
16513;DHT22;8369;48.030;11.598;2024-02-26T11:12:28;8.80;99.90
16513;DHT22;8369;48.030;11.598;2024-02-26T11:14:55;8.90;99.90
16513;DHT22;8369;48.030;11.598;2024-02-26T11:17:27;9.00;99.90
16513;DHT22;8369;48.030;11.598;2024-02-26T11:19:55;9.10;99.90
16513;DHT22;8369;48.030;11.598;2024-02-26T11:22:21;9.20;99.90
16513;DHT22;8369;48.030;11.598;2024-02-26T11:24:48;9.20;99.90
16513;DHT22;8369;48.030;11.598;2024-02-26T11:27:16;9.30;99.90
16513;DHT22;8369;48.030;11.598;2024-02-26T11:29:47;9.30;99.90
16513;DHT22;8369;48.030;11.598;2024-02-26T11:32:16;9.30;99.90
16513;DHT22;8369;48.030;11.598;2024-02-26T11:34:42;9.30;99.90
16513;DHT22;8369;48.030;11.598;2024-02-26T11:37:13;9.40;99.90
16513;DHT22;8369;48.030;11.598;2024-02-26T11:39:40;9.50;99.90
16513;DHT22;8369;48.030;11.598;2024-02-26T11:42:10;9.60;99.90
16513;DHT22;8369;48.030;11.598;2024-02-26T11:44:41;9.70;99.90
16513;DHT22;8369;48.030;11.598;2024-02-26T11:47:17;9.90;99.90
16513;DHT22;8369;48.030;11.598;2024-02-26T11:49:43;10.00;99.90
16513;DHT22;8369;48.030;11.598;2024-02-26T11:52:10;10.20;99.90
16513;DHT22;8369;48.030;11.598;2024-02-26T11:54:47;10.40;99.80
16513;DHT22;8369;48.030;11.598;2024-02-26T11:59:48;10.70;97.20
16513;DHT22;8369;48.030;11.598;2024-02-26T12:02:40;10.70;93.60
16513;DHT22;8369;48.030;11.598;2024-02-26T12:05:20;10.90;94.00
16513;DHT22;8369;48.030;11.598;2024-02-26T12:07:55;11.00;94.30
16513;DHT22;8369;48.030;11.598;2024-02-26T12:10:30;11.10;93.60
16513;DHT22;8369;48.030;11.598;2024-02-26T12:15:36;11.20;94.50
16513;DHT22;8369;48.030;11.598;2024-02-26T12:18:03;11.30;93.20
16513;DHT22;8369;48.030;11.598;2024-02-26T12:20:30;11.40;90.50
16513;DHT22;8369;48.030;11.598;2024-02-26T12:22:56;11.40;90.90
16513;DHT22;8369;48.030;11.598;2024-02-26T12:25:25;11.30;91.60
16513;DHT22;8369;48.030;11.598;2024-02-26T12:27:52;11.30;92.20
16513;DHT22;8369;48.030;11.598;2024-02-26T12:30:17;11.30;92.80
16513;DHT22;8369;48.030;11.598;2024-02-26T12:32:45;11.30;90.00
16513;DHT22;8369;48.030;11.598;2024-02-26T12:35:10;11.40;89.40
16513;DHT22;8369;48.030;11.598;2024-02-26T12:37:36;11.40;90.20
16513;DHT22;8369;48.030;11.598;2024-02-26T12:40:06;11.50;84.80
16513;DHT22;8369;48.030;11.598;2024-02-26T12:42:33;11.50;88.60
16513;DHT22;8369;48.030;11.598;2024-02-26T12:45:05;11.50;88.00
16513;DHT22;8369;48.030;11.598;2024-02-26T12:47:38;11.40;86.30
16513;DHT22;8369;48.030;11.598;2024-02-26T12:50:05;11.40;86.00
16513;DHT22;8369;48.030;11.598;2024-02-26T12:52:33;11.30;86.50
16513;DHT22;8369;48.030;11.598;2024-02-26T12:54:59;11.30;82.50
16513;DHT22;8369;48.030;11.598;2024-02-26T12:57:25;11.20;84.40
16513;DHT22;8369;48.030;11.598;2024-02-26T12:59:52;11.30;87.20
16513;DHT22;8369;48.030;11.598;2024-02-26T13:02:18;11.30;88.80
16513;DHT22;8369;48.030;11.598;2024-02-26T13:04:44;11.40;86.80
16513;DHT22;8369;48.030;11.598;2024-02-26T13:07:10;11.40;85.10
16513;DHT22;8369;48.030;11.598;2024-02-26T13:09:36;11.50;84.50
16513;DHT22;8369;48.030;11.598;2024-02-26T13:12:04;11.50;83.70
16513;DHT22;8369;48.030;11.598;2024-02-26T13:14:31;11.60;80.00
16513;DHT22;8369;48.030;11.598;2024-02-26T13:16:59;11.60;82.80
16513;DHT22;8369;48.030;11.598;2024-02-26T13:19:25;11.60;78.10
16513;DHT22;8369;48.030;11.598;2024-02-26T13:21:51;11.70;80.20
16513;DHT22;8369;48.030;11.598;2024-02-26T13:24:20;11.70;78.10
16513;DHT22;8369;48.030;11.598;2024-02-26T13:26:53;11.70;76.20
16513;DHT22;8369;48.030;11.598;2024-02-26T13:29:19;11.70;77.60
16513;DHT22;8369;48.030;11.598;2024-02-26T13:31:45;11.80;72.40
16513;DHT22;8369;48.030;11.598;2024-02-26T13:34:27;11.80;71.80
16513;DHT22;8369;48.030;11.598;2024-02-26T13:36:54;11.80;73.20
16513;DHT22;8369;48.030;11.598;2024-02-26T13:39:27;11.80;72.90
16513;DHT22;8369;48.030;11.598;2024-02-26T13:41:54;11.90;74.60
16513;DHT22;8369;48.030;11.598;2024-02-26T13:44:20;11.90;77.10
16513;DHT22;8369;48.030;11.598;2024-02-26T13:46:47;11.90;77.00
16513;DHT22;8369;48.030;11.598;2024-02-26T13:49:13;11.90;78.70
16513;DHT22;8369;48.030;11.598;2024-02-26T13:51:39;11.80;76.70
16513;DHT22;8369;48.030;11.598;2024-02-26T13:54:05;11.70;78.40
16513;DHT22;8369;48.030;11.598;2024-02-26T13:56:31;11.70;80.30
16513;DHT22;8369;48.030;11.598;2024-02-26T13:58:57;11.70;83.40
16513;DHT22;8369;48.030;11.598;2024-02-26T14:01:24;11.60;86.90
16513;DHT22;8369;48.030;11.598;2024-02-26T14:03:49;11.60;89.40
16513;DHT22;8369;48.030;11.598;2024-02-26T14:06:16;11.50;91.10
16513;DHT22;8369;48.030;11.598;2024-02-26T14:08:42;11.50;91.60
16513;DHT22;8369;48.030;11.598;2024-02-26T14:11:08;11.40;92.50
16513;DHT22;8369;48.030;11.598;2024-02-26T14:13:34;11.30;92.20
16513;DHT22;8369;48.030;11.598;2024-02-26T14:15:59;11.20;92.70
16513;DHT22;8369;48.030;11.598;2024-02-26T14:18:25;11.20;93.10
16513;DHT22;8369;48.030;11.598;2024-02-26T14:20:52;11.10;94.20
16513;DHT22;8369;48.030;11.598;2024-02-26T14:23:18;11.10;94.30
16513;DHT22;8369;48.030;11.598;2024-02-26T14:25:44;11.00;95.00
16513;DHT22;8369;48.030;11.598;2024-02-26T14:28:09;11.00;95.20
16513;DHT22;8369;48.030;11.598;2024-02-26T14:30:35;10.90;96.40
16513;DHT22;8369;48.030;11.598;2024-02-26T14:33:01;10.90;97.10
16513;DHT22;8369;48.030;11.598;2024-02-26T14:35:27;10.90;97.50
16513;DHT22;8369;48.030;11.598;2024-02-26T14:37:52;10.80;98.20
16513;DHT22;8369;48.030;11.598;2024-02-26T14:40:19;10.80;98.40
16513;DHT22;8369;48.030;11.598;2024-02-26T14:42:45;10.70;98.70
16513;DHT22;8369;48.030;11.598;2024-02-26T14:45:11;10.70;99.20
16513;DHT22;8369;48.030;11.598;2024-02-26T14:47:40;10.60;99.60
16513;DHT22;8369;48.030;11.598;2024-02-26T14:50:06;10.60;99.60
16513;DHT22;8369;48.030;11.598;2024-02-26T14:52:31;10.50;99.90
16513;DHT22;8369;48.030;11.598;2024-02-26T14:54:57;10.50;99.70
16513;DHT22;8369;48.030;11.598;2024-02-26T14:57:24;10.40;99.70
16513;DHT22;8369;48.030;11.598;2024-02-26T14:59:50;10.40;99.80
16513;DHT22;8369;48.030;11.598;2024-02-26T15:02:16;10.30;99.90
16513;DHT22;8369;48.030;11.598;2024-02-26T15:04:43;10.30;99.90
16513;DHT22;8369;48.030;11.598;2024-02-26T15:07:09;10.20;99.90
16513;DHT22;8369;48.030;11.598;2024-02-26T15:09:38;10.20;99.90
16513;DHT22;8369;48.030;11.598;2024-02-26T15:12:05;10.10;99.90
16513;DHT22;8369;48.030;11.598;2024-02-26T15:14:35;10.10;99.90
16513;DHT22;8369;48.030;11.598;2024-02-26T15:17:01;10.10;99.90
16513;DHT22;8369;48.030;11.598;2024-02-26T15:19:26;10.00;99.90
16513;DHT22;8369;48.030;11.598;2024-02-26T15:21:52;10.00;99.90
16513;DHT22;8369;48.030;11.598;2024-02-26T15:24:18;9.90;99.90
16513;DHT22;8369;48.030;11.598;2024-02-26T15:26:45;9.90;99.90
16513;DHT22;8369;48.030;11.598;2024-02-26T15:29:12;9.90;99.90
16513;DHT22;8369;48.030;11.598;2024-02-26T15:31:38;9.80;99.90
16513;DHT22;8369;48.030;11.598;2024-02-26T15:34:04;9.80;99.90
16513;DHT22;8369;48.030;11.598;2024-02-26T15:36:30;9.70;99.90
16513;DHT22;8369;48.030;11.598;2024-02-26T15:38:56;9.70;99.90
16513;DHT22;8369;48.030;11.598;2024-02-26T15:41:29;9.70;99.90
16513;DHT22;8369;48.030;11.598;2024-02-26T15:43:55;9.60;99.90
16513;DHT22;8369;48.030;11.598;2024-02-26T15:46:21;9.60;99.90
16513;DHT22;8369;48.030;11.598;2024-02-26T15:48:47;9.50;99.90